Time;durP1;ratioP1;P1;durP2;ratioP2;P2;SDS_P1;SDS_P2;PMS_P1;PMS_P2;Temp;Humidity;BMP_temperature;BMP_pressure;BME280_temperature;BME280_humidity;BME280_pressure;Samples;Min_cycle;Max_cycle;Signal;HPM_P1;HPM_P2
2023/01/01 00:00:12;;;;;;;64.63;36.38;;;;;;;9.90;100.00;96207.75;1014105;29;20063;-66
2023/01/01 00:00:43;;;;;;;57.78;31.83;;;;;;;9.99;100.00;96204.66;1009924;29;20088;-66
2023/01/01 00:01:15;;;;;;;51.22;29.75;;;;;;;9.97;100.00;96207.56;1016404;29;20099;-66
2023/01/01 00:01:45;;;;;;;50.50;27.15;;;;;;;9.96;100.00;96211.22;1016996;29;20059;-67
2023/01/01 00:02:16;;;;;;;45.22;25.25;;;;;;;9.91;100.00;96208.53;1017965;29;21128;-68
2023/01/01 00:02:46;;;;;;;52.97;26.48;;;;;;;9.86;100.00;96211.13;1013184;29;20036;-66
2023/01/01 00:03:17;;;;;;;51.00;27.55;;;;;;;9.82;100.00;96212.63;1017763;29;20039;-66
2023/01/01 00:03:51;;;;;;;51.15;27.73;;;;;;;9.76;100.00;96203.94;1021723;28;20027;-65
2023/01/01 00:04:22;;;;;;;53.25;27.65;;;;;;;9.72;100.00;96215.91;1021608;29;20090;-67
2023/01/01 00:04:52;;;;;;;58.95;30.98;;;;;;;9.74;100.00;96215.69;1013624;29;20802;-66
2023/01/01 00:05:23;;;;;;;62.38;33.90;;;;;;;9.71;100.00;96208.31;1021803;29;20121;-66
2023/01/01 00:05:53;;;;;;;61.38;33.92;;;;;;;9.67;100.00;96219.28;1017308;29;20377;-67
2023/01/01 00:06:24;;;;;;;67.07;36.47;;;;;;;9.68;100.00;96218.22;1014109;29;20590;-65
2023/01/01 00:06:55;;;;;;;65.72;38.08;;;;;;;9.65;100.00;96212.69;1018725;29;20062;-68
2023/01/01 00:07:25;;;;;;;67.78;38.40;;;;;;;9.60;100.00;96215.25;1021773;28;20536;-66
2023/01/01 00:07:56;;;;;;;79.75;41.88;;;;;;;9.57;100.00;96213.13;1011773;29;20032;-66
2023/01/01 00:08:26;;;;;;;70.25;42.38;;;;;;;9.51;100.00;96219.34;1017454;29;20040;-67
2023/01/01 00:10:36;;;;;;;96.18;52.22;;;;;;;9.29;100.00;96224.53;1012717;29;20273;-66
2023/01/01 00:11:07;;;;;;;103.13;52.25;;;;;;;9.27;100.00;96230.03;1022219;29;20270;-67
2023/01/01 00:11:38;;;;;;;98.38;53.25;;;;;;;9.23;100.00;96238.63;1015468;29;20272;-66
2023/01/01 00:12:08;;;;;;;95.55;51.85;;;;;;;9.18;100.00;96236.72;1017371;29;20282;-68
2023/01/01 00:12:39;;;;;;;106.97;53.70;;;;;;;9.12;100.00;96235.88;1009471;29;20037;-67
2023/01/01 00:13:12;;;;;;;89.65;50.38;;;;;;;9.09;100.00;96233.72;1017752;29;20087;-65
2023/01/01 00:13:43;;;;;;;96.68;55.28;;;;;;;8.96;100.00;96213.13;1021600;29;20075;-66
2023/01/01 00:14:14;;;;;;;102.25;53.70;;;;;;;9.00;100.00;96219.47;1019125;29;20270;-66
2023/01/01 00:14:44;;;;;;;98.25;53.88;;;;;;;8.99;100.00;96233.59;1016519;29;20307;-65
2023/01/01 00:15:15;;;;;;;93.85;52.33;;;;;;;8.97;100.00;96227.78;1014440;29;20039;-69
2023/01/01 00:15:45;;;;;;;100.95;51.45;;;;;;;8.97;100.00;96230.41;1015717;29;20035;-65
2023/01/01 00:16:16;;;;;;;95.35;51.15;;;;;;;8.97;100.00;96235.63;1017421;29;20118;-65
2023/01/01 00:16:46;;;;;;;93.50;48.35;;;;;;;8.95;100.00;96228.03;1017667;29;20169;-66
2023/01/01 00:17:17;;;;;;;91.22;47.10;;;;;;;8.93;100.00;96230.09;1008988;29;20071;-68
2023/01/01 00:17:47;;;;;;;82.90;43.70;;;;;;;8.93;100.00;96239.78;1009356;29;20304;-65
2023/01/01 00:18:18;;;;;;;73.22;40.45;;;;;;;8.95;100.00;96230.66;1009920;29;20025;-64
2023/01/01 00:18:48;;;;;;;75.13;41.55;;;;;;;8.95;100.00;96233.28;1017225;29;20115;-65
2023/01/01 00:19:19;;;;;;;85.72;42.42;;;;;;;8.94;100.00;96229.06;1014296;29;20024;-66
2023/01/01 00:19:49;;;;;;;70.65;41.10;;;;;;;8.94;100.00;96226.44;1013079;29;20051;-66
2023/01/01 00:20:20;;;;;;;75.18;39.20;;;;;;;8.91;100.00;96226.13;1013580;29;20172;-65
2023/01/01 00:20:50;;;;;;;67.20;38.50;;;;;;;8.95;100.00;96229.84;1014449;29;20490;-66
2023/01/01 00:21:21;;;;;;;67.00;38.92;;;;;;;8.91;100.00;96237.38;1017626;29;20066;-68
2023/01/01 00:21:51;;;;;;;65.65;37.33;;;;;;;8.85;100.00;96233.13;1021831;28;20107;-66
2023/01/01 00:22:22;;;;;;;68.88;37.90;;;;;;;8.81;100.00;96225.97;1017568;29;20043;-66
2023/01/01 00:22:53;;;;;;;68.32;37.88;;;;;;;8.85;100.00;96235.75;1017599;29;20084;-67
2023/01/01 00:23:23;;;;;;;67.18;35.92;;;;;;;8.83;100.00;96235.19;1017800;29;20058;-67
2023/01/01 00:23:54;;;;;;;58.85;32.95;;;;;;;8.86;100.00;96234.69;1017726;29;20280;-66
2023/01/01 00:24:24;;;;;;;55.35;30.70;;;;;;;8.94;100.00;96230.88;1021461;28;20196;-67
2023/01/01 00:24:55;;;;;;;50.65;28.98;;;;;;;8.95;100.00;96229.84;1025756;28;20031;-67
2023/01/01 00:25:25;;;;;;;57.33;31.27;;;;;;;8.96;100.00;96229.63;1025801;28;20191;-66
2023/01/01 00:25:56;;;;;;;56.10;30.83;;;;;;;9.01;100.00;96234.13;1025308;28;20042;-66
2023/01/01 00:26:26;;;;;;;59.13;30.55;;;;;;;8.95;100.00;96222.81;1025860;28;20064;-65
2023/01/01 00:26:57;;;;;;;57.00;29.50;;;;;;;9.01;100.00;96228.88;1017581;29;20299;-65
2023/01/01 00:27:27;;;;;;;55.47;29.38;;;;;;;9.08;100.00;96232.13;1013969;29;20039;-70
2023/01/01 00:27:58;;;;;;;54.35;29.45;;;;;;;8.99;100.00;96223.13;1013703;29;20075;-66
2023/01/01 00:28:28;;;;;;;50.33;28.67;;;;;;;9.06;100.00;96236.03;1017657;28;20082;-66
2023/01/01 00:28:59;;;;;;;55.83;28.13;;;;;;;9.06;100.00;96233.41;1026013;28;20045;-66
2023/01/01 00:29:30;;;;;;;56.55;29.40;;;;;;;9.03;100.00;96229.44;1016561;29;20043;-68
2023/01/01 00:30:01;;;;;;;52.63;29.48;;;;;;;9.03;100.00;96234.69;1017035;29;20363;-67
2023/01/01 00:30:37;;;;;;;50.97;30.35;;;;;;;9.01;100.00;96234.13;1013514;29;20382;-66
2023/01/01 00:31:12;;;;;;;58.63;33.50;;;;;;;9.00;100.00;96235.16;1011956;29;20786;-66
2023/01/01 00:31:42;;;;;;;92.28;47.97;;;;;;;9.03;100.00;96237.31;1017951;29;20883;-66
2023/01/01 00:32:13;;;;;;;99.13;50.30;;;;;;;9.01;100.00;96231.50;1018016;29;20334;-66
2023/01/01 00:32:44;;;;;;;104.65;53.25;;;;;;;8.97;100.00;96230.41;1015889;29;20039;-65
2023/01/01 00:33:15;;;;;;;124.78;64.03;;;;;;;8.97;100.00;96233.03;1018910;29;20051;-67
2023/01/01 00:33:48;;;;;;;124.20;61.83;;;;;;;8.96;100.00;96239.28;1021726;29;20282;-66
2023/01/01 00:34:19;;;;;;;131.05;61.17;;;;;;;8.97;100.00;96236.44;1014280;29;20526;-67
2023/01/01 00:34:49;;;;;;;130.90;65.55;;;;;;;9.02;100.00;96240.16;1013827;29;20277;-64
2023/01/01 00:35:20;;;;;;;128.57;66.80;;;;;;;9.01;100.00;96235.94;1010472;29;20036;-65
2023/01/01 00:35:50;;;;;;;124.97;61.45;;;;;;;9.01;100.00;96235.94;1013630;29;20553;-66
2023/01/01 00:36:22;;;;;;;120.93;62.92;;;;;;;8.96;100.00;96234.06;1021656;29;20031;-68
2023/01/01 00:36:52;;;;;;;149.50;68.72;;;;;;;9.17;100.00;96233.31;1014994;29;20042;-66
2023/01/01 00:37:23;;;;;;;119.28;61.30;;;;;;;9.19;100.00;96238.31;1017790;29;20335;-67
2023/01/01 00:37:53;;;;;;;108.28;56.97;;;;;;;9.17;100.00;96235.94;1017183;29;20039;-65
2023/01/01 00:38:24;;;;;;;97.22;52.00;;;;;;;9.12;100.00;96214.94;1018415;29;20040;-68
2023/01/01 00:38:54;;;;;;;80.93;45.35;;;;;;;9.33;100.00;96225.66;1021472;28;20051;-67
2023/01/01 00:39:25;;;;;;;83.22;44.92;;;;;;;9.37;100.00;96232.00;1017465;29;20115;-66
2023/01/01 00:39:55;;;;;;;81.30;43.88;;;;;;;9.34;100.00;96233.28;1017684;29;20554;-65
2023/01/01 00:40:26;;;;;;;83.35;45.63;;;;;;;9.38;100.00;96236.19;1011352;29;20361;-68
2023/01/01 00:40:56;;;;;;;81.50;44.45;;;;;;;9.37;100.00;96235.41;1009996;29;20036;-67
2023/01/01 00:41:27;;;;;;;85.35;45.58;;;;;;;9.41;100.00;96246.19;1018625;29;20090;-65
2023/01/01 00:41:57;;;;;;;92.45;48.72;;;;;;;9.37;100.00;96242.47;1020532;29;20038;-66
2023/01/01 00:42:27;;;;;;;85.05;45.53;;;;;;;9.42;100.00;96237.28;1021533;29;20082;-67
2023/01/01 00:42:58;;;;;;;90.70;45.08;;;;;;;9.37;100.00;96240.66;1017977;29;20063;-69
2023/01/01 00:43:28;;;;;;;91.38;46.85;;;;;;;9.43;100.00;96242.31;1017601;29;20044;-67
2023/01/01 00:43:59;;;;;;;83.57;47.08;;;;;;;9.42;100.00;96240.72;1013918;29;20032;-66
2023/01/01 00:44:29;;;;;;;86.43;46.92;;;;;;;9.37;100.00;96245.09;1013486;29;20415;-66
2023/01/01 00:45:00;;;;;;;82.47;45.92;;;;;;;9.35;100.00;96241.91;1010166;29;20043;-68
2023/01/01 00:45:30;;;;;;;81.18;46.58;;;;;;;9.33;100.00;96241.38;1014625;29;20047;-66
2023/01/01 00:46:01;;;;;;;76.85;44.58;;;;;;;9.31;100.00;96232.97;1016720;29;20031;-65
2023/01/01 00:46:32;;;;;;;76.00;44.50;;;;;;;9.33;100.00;96254.47;1017878;29;20134;-67
2023/01/01 00:47:02;;;;;;;81.43;46.47;;;;;;;9.22;100.00;96237.81;1020333;29;20483;-68
2023/01/01 00:47:33;;;;;;;79.93;46.28;;;;;;;9.17;100.00;96241.16;1009803;29;20040;-68
2023/01/01 00:48:03;;;;;;;82.93;44.95;;;;;;;9.20;100.00;96251.16;1013911;29;20032;-65
2023/01/01 00:48:34;;;;;;;81.07;43.58;;;;;;;9.18;100.00;96245.34;1016370;29;20040;-65
2023/01/01 00:49:04;;;;;;;77.32;45.80;;;;;;;9.19;100.00;96256.66;1021304;29;20034;-67
2023/01/01 00:49:35;;;;;;;80.93;44.60;;;;;;;9.17;100.00;96251.63;1014311;29;20043;-68
2023/01/01 00:50:05;;;;;;;72.72;42.60;;;;;;;9.17;100.00;96253.47;1018005;29;20386;-67
2023/01/01 00:50:36;;;;;;;78.60;43.70;;;;;;;9.10;100.00;96243.16;1013459;29;20494;-67
2023/01/01 00:51:06;;;;;;;74.82;42.95;;;;;;;9.15;100.00;96255.53;1010853;29;20036;-67
2023/01/01 00:51:37;;;;;;;73.05;42.67;;;;;;;9.17;100.00;96256.09;1010243;29;20037;-66
2023/01/01 00:52:07;;;;;;;74.78;39.95;;;;;;;9.25;100.00;96252.25;1012289;29;20032;-67
2023/01/01 00:52:38;;;;;;;81.05;40.78;;;;;;;9.30;100.00;96252.34;1015966;29;20035;-67
2023/01/01 00:53:08;;;;;;;75.15;41.38;;;;;;;9.12;100.00;96227.19;1017722;29;20553;-66
2023/01/01 00:53:39;;;;;;;73.57;39.58;;;;;;;9.10;100.00;96230.06;1017988;29;20044;-65
2023/01/01 00:54:09;;;;;;;66.40;38.22;;;;;;;9.27;100.00;96250.19;1021426;29;20031;-65
2023/01/01 00:54:40;;;;;;;68.72;39.88;;;;;;;9.27;100.00;96251.00;1017613;29;20325;-65
2023/01/01 00:55:10;;;;;;;67.00;37.35;;;;;;;9.31;100.00;96259.16;1017894;29;20529;-67
2023/01/01 00:55:41;;;;;;;74.13;39.25;;;;;;;9.20;100.00;96245.91;1017020;29;20035;-68
2023/01/01 00:56:11;;;;;;;71.40;39.15;;;;;;;9.18;100.00;96253.22;1018375;29;20486;-67
2023/01/01 00:56:42;;;;;;;79.55;42.58;;;;;;;9.18;100.00;96258.44;1018980;29;20027;-67
2023/01/01 00:57:12;;;;;;;71.38;39.78;;;;;;;9.21;100.00;96252.72;1017417;29;20035;-67
2023/01/01 00:57:43;;;;;;;66.65;38.08;;;;;;;9.13;100.00;96249.75;1021440;29;20066;-65
2023/01/01 00:58:13;;;;;;;68.15;37.28;;;;;;;9.15;100.00;96253.72;1021416;29;20062;-66
2023/01/01 00:58:44;;;;;;;66.93;38.88;;;;;;;9.10;100.00;96251.00;1013896;29;20604;-67
2023/01/01 00:59:14;;;;;;;65.55;37.15;;;;;;;9.03;100.00;96255.63;1014162;29;20028;-66
2023/01/01 00:59:45;;;;;;;65.32;38.55;;;;;;;9.02;100.00;96254.06;1013951;29;20559;-66
2023/01/01 01:00:16;;;;;;;72.93;41.03;;;;;;;9.02;100.00;96259.28;1018001;29;20746;-66
2023/01/01 01:00:46;;;;;;;72.63;40.45;;;;;;;8.97;100.00;96259.19;1018136;29;20024;-66
2023/01/01 01:01:17;;;;;;;66.63;35.38;;;;;;;9.01;100.00;96257.69;1022504;28;20078;-67
2023/01/01 01:01:47;;;;;;;73.05;37.25;;;;;;;8.98;100.00;96264.19;1025912;28;20045;-67
2023/01/01 01:02:17;;;;;;;60.72;34.20;;;;;;;9.01;100.00;96259.50;1021336;29;20054;-67
2023/01/01 01:02:48;;;;;;;62.13;36.47;;;;;;;8.97;100.00;96259.97;1016688;29;20047;-64
2023/01/01 01:03:27;;;;;;;66.93;35.28;;;;;;;8.98;100.00;96260.78;1018460;29;20028;-67
2023/01/01 01:03:58;;;;;;;59.67;34.50;;;;;;;8.98;100.00;96258.16;1014897;29;20036;-69
2023/01/01 01:04:28;;;;;;;66.00;36.05;;;;;;;8.91;100.00;96257.53;1013300;29;20275;-70
2023/01/01 01:05:00;;;;;;;64.32;35.00;;;;;;;8.85;100.00;96256.69;1008496;29;20036;-70
2023/01/01 01:05:31;;;;;;;64.53;34.90;;;;;;;8.87;100.00;96261.66;1010077;29;20040;-71
2023/01/01 01:06:01;;;;;;;61.00;35.75;;;;;;;8.86;100.00;96257.47;1018406;29;20275;-69
2023/01/01 01:06:32;;;;;;;67.82;38.53;;;;;;;8.84;100.00;96262.13;1021683;28;20673;-71
2023/01/01 01:07:03;;;;;;;64.65;34.35;;;;;;;8.80;100.00;96261.81;1021935;29;20057;-71
2023/01/01 01:07:36;;;;;;;60.85;33.30;;;;;;;8.79;100.00;96259.44;1017344;29;20032;-69
2023/01/01 01:08:06;;;;;;;63.33;34.90;;;;;;;8.79;100.00;96256.84;1013976;29;20024;-70
2023/01/01 01:08:38;;;;;;;62.22;33.20;;;;;;;8.70;100.00;96251.97;1013458;29;20292;-69
2023/01/01 01:09:09;;;;;;;55.65;32.05;;;;;;;8.73;100.00;96259.34;1006440;29;20052;-69
2023/01/01 01:09:39;;;;;;;53.67;30.05;;;;;;;8.74;100.00;96258.31;1009975;29;20818;-70
2023/01/01 01:10:11;;;;;;;56.75;31.15;;;;;;;8.71;100.00;96247.53;1014347;29;20039;-69
2023/01/01 01:10:41;;;;;;;49.03;28.08;;;;;;;8.76;100.00;96259.94;1017772;28;20047;-69
2023/01/01 01:11:13;;;;;;;52.00;29.27;;;;;;;8.78;100.00;96258.63;1021899;29;20267;-71
2023/01/01 01:11:44;;;;;;;56.42;29.77;;;;;;;8.80;100.00;96247.94;1017902;29;20553;-72
2023/01/01 01:12:14;;;;;;;54.72;29.15;;;;;;;8.82;100.00;96258.94;1017814;29;20279;-69
2023/01/01 01:12:45;;;;;;;52.67;30.40;;;;;;;8.81;100.00;96258.16;1018292;29;20518;-72
2023/01/01 01:13:15;;;;;;;52.88;29.27;;;;;;;8.81;100.00;96252.94;1017810;29;20107;-70
2023/01/01 01:13:48;;;;;;;55.53;30.42;;;;;;;8.76;100.00;96254.69;1020624;29;20062;-69
2023/01/01 01:14:19;;;;;;;55.58;29.80;;;;;;;8.84;100.00;96251.66;1014850;29;20020;-69
2023/01/01 01:14:49;;;;;;;53.45;30.17;;;;;;;8.82;100.00;96256.34;1013683;29;20287;-70
2023/01/01 01:15:20;;;;;;;52.20;30.42;;;;;;;8.80;100.00;96250.56;1021271;29;20442;-68
2023/01/01 01:15:50;;;;;;;59.67;30.98;;;;;;;8.79;100.00;96246.38;1015584;29;20035;-70
2023/01/01 01:16:26;;;;;;;57.47;31.50;;;;;;;8.82;100.00;96248.47;1014077;29;20086;-67
2023/01/01 01:16:56;;;;;;;55.42;31.20;;;;;;;8.83;100.00;96244.84;1009942;29;20040;-69
2023/01/01 01:17:28;;;;;;;54.42;31.05;;;;;;;8.82;100.00;96246.69;1011645;29;20280;-71
2023/01/01 01:17:58;;;;;;;51.17;30.33;;;;;;;8.83;100.00;96245.66;1014200;29;20024;-69
2023/01/01 01:18:29;;;;;;;60.70;32.33;;;;;;;8.84;100.00;96251.66;1014431;29;20339;-68
2023/01/01 01:19:00;;;;;;;55.72;32.15;;;;;;;8.82;100.00;96249.31;1021653;29;20027;-69
2023/01/01 01:19:31;;;;;;;55.63;31.75;;;;;;;8.81;100.00;96246.91;1022015;29;20750;-72
2023/01/01 01:20:02;;;;;;;55.60;30.25;;;;;;;8.85;100.00;96248.00;1017811;29;20303;-71
2023/01/01 01:20:32;;;;;;;49.92;28.88;;;;;;;8.84;100.00;96246.44;1014071;29;20063;-71
2023/01/01 01:21:03;;;;;;;51.60;29.90;;;;;;;8.82;100.00;96249.31;1014135;29;20774;-70
2023/01/01 01:21:33;;;;;;;52.88;30.52;;;;;;;8.83;100.00;96240.41;1010474;29;20021;-69
2023/01/01 01:22:04;;;;;;;49.85;27.17;;;;;;;8.86;100.00;96245.16;1010415;29;20020;-69
2023/01/01 01:22:34;;;;;;;54.60;29.20;;;;;;;8.84;100.00;96241.19;1010099;29;20027;-70
2023/01/01 01:23:05;;;;;;;52.13;29.25;;;;;;;8.81;100.00;96247.69;1010184;29;20135;-69
2023/01/01 01:23:35;;;;;;;45.72;23.98;;;;;;;8.98;100.00;96245.84;1014148;29;20028;-68
2023/01/01 01:24:06;;;;;;;43.90;24.00;;;;;;;8.98;100.00;96238.00;1014372;29;20692;-69
2023/01/01 01:24:36;;;;;;;45.20;25.08;;;;;;;8.94;100.00;96249.19;1017849;29;20569;-71
2023/01/01 01:25:07;;;;;;;51.08;27.55;;;;;;;8.92;100.00;96244.22;1018393;29;20023;-71
2023/01/01 01:25:38;;;;;;;49.33;27.45;;;;;;;8.94;100.00;96246.59;1021480;28;20054;-68
2023/01/01 01:26:16;;;;;;;49.85;27.08;;;;;;;8.94;100.00;96246.59;1022026;29;20262;-70
2023/01/01 01:26:47;;;;;;;40.95;24.55;;;;;;;8.90;100.00;96248.09;1022009;29;20023;-72
2023/01/01 01:27:17;;;;;;;47.22;27.25;;;;;;;8.88;100.00;96244.91;1017709;29;20279;-70
2023/01/01 01:27:48;;;;;;;48.17;25.75;;;;;;;8.92;100.00;96248.63;1019404;29;20043;-70
2023/01/01 01:28:18;;;;;;;42.97;23.77;;;;;;;8.94;100.00;96249.19;1022026;29;20034;-68
2023/01/01 01:28:49;;;;;;;44.33;25.92;;;;;;;8.90;100.00;96229.78;1018115;29;20027;-70
2023/01/01 01:29:19;;;;;;;46.15;25.17;;;;;;;8.94;100.00;96231.66;1014224;29;20023;-69
2023/01/01 01:29:50;;;;;;;44.50;23.13;;;;;;;8.92;100.00;96233.75;1011902;29;20380;-69
2023/01/01 01:30:20;;;;;;;42.83;23.83;;;;;;;8.96;100.00;96236.69;1018530;29;20039;-70
2023/01/01 01:30:50;;;;;;;48.90;23.50;;;;;;;9.05;100.00;96237.84;1018303;29;20031;-68
2023/01/01 01:31:22;;;;;;;43.95;24.90;;;;;;;9.02;100.00;96240.97;1017812;29;20076;-70
2023/01/01 01:31:52;;;;;;;42.85;24.13;;;;;;;9.01;100.00;96238.56;1014542;29;20029;-69
2023/01/01 01:32:23;;;;;;;41.92;24.50;;;;;;;8.95;100.00;96242.94;1018166;29;20413;-69
2023/01/01 01:32:53;;;;;;;44.97;23.52;;;;;;;8.96;100.00;96247.94;1019906;29;20035;-69
2023/01/01 01:33:24;;;;;;;38.00;21.10;;;;;;;9.00;100.00;96240.41;1022459;28;20034;-70
2023/01/01 01:33:55;;;;;;;36.67;21.27;;;;;;;9.03;100.00;96239.13;1017854;29;20509;-72
2023/01/01 01:34:25;;;;;;;44.75;24.05;;;;;;;9.00;100.00;96240.41;1018506;29;20054;-68
2023/01/01 01:34:55;;;;;;;35.30;20.63;;;;;;;9.05;100.00;96237.06;1017886;29;20032;-67
2023/01/01 01:35:28;;;;;;;35.08;19.70;;;;;;;9.13;100.00;96237.44;1018143;28;20067;-74
2023/01/01 01:35:59;;;;;;;37.20;19.90;;;;;;;9.15;100.00;96242.44;1024340;28;20090;-69
2023/01/01 01:36:29;;;;;;;34.45;19.48;;;;;;;9.10;100.00;96231.91;1020406;29;20714;-69
2023/01/01 01:36:59;;;;;;;31.10;18.67;;;;;;;9.17;100.00;96240.38;1019105;29;20327;-69
2023/01/01 01:37:30;;;;;;;35.35;20.00;;;;;;;9.13;100.00;96240.06;1022271;29;20453;-71
2023/01/01 01:38:01;;;;;;;38.13;21.80;;;;;;;9.09;100.00;96244.22;1021816;29;20039;-73
2023/01/01 01:38:31;;;;;;;41.75;21.02;;;;;;;9.10;100.00;96248.41;1023813;28;20034;-71
2023/01/01 01:39:02;;;;;;;46.25;23.02;;;;;;;9.09;100.00;96246.03;1018005;29;20283;-68
2023/01/01 01:39:32;;;;;;;44.95;23.42;;;;;;;9.03;100.00;96234.69;1014380;29;20103;-72
2023/01/01 01:40:04;;;;;;;41.92;23.13;;;;;;;9.05;100.00;96247.53;1018046;29;20023;-70
2023/01/01 01:40:34;;;;;;;40.97;21.55;;;;;;;9.09;100.00;96244.22;1018066;29;20556;-70
2023/01/01 01:41:05;;;;;;;37.05;21.33;;;;;;;9.10;100.00;96245.78;1019701;29;20318;-69
2023/01/01 01:41:35;;;;;;;35.17;21.15;;;;;;;9.11;100.00;96244.75;1018316;29;20023;-69
2023/01/01 01:42:05;;;;;;;34.28;21.42;;;;;;;9.04;100.00;96235.47;1019688;29;20094;-69
2023/01/01 01:42:36;;;;;;;40.70;22.60;;;;;;;9.06;100.00;96239.44;1018470;29;20114;-73
2023/01/01 01:43:23;;;;;;;40.40;20.85;;;;;;;9.04;100.00;96236.25;1012370;29;20029;-70
2023/01/01 01:43:58;;;;;;;38.95;21.70;;;;;;;9.09;100.00;96249.44;1007622;29;20439;-70
2023/01/01 01:44:50;;;;;;;34.42;22.10;;;;;;;9.14;100.00;96251.31;1016914;29;20298;-68
2023/01/01 01:45:21;;;;;;;34.53;21.75;;;;;;;9.07;100.00;96245.47;1025909;28;20361;-69
2023/01/01 01:45:54;;;;;;;42.55;22.17;;;;;;;9.05;100.00;96243.06;1021217;29;20383;-72
2023/01/01 01:46:40;;;;;;;37.35;21.33;;;;;;;8.98;100.00;96234.59;1010686;29;20056;-68
2023/01/01 01:47:34;;;;;;;40.45;21.85;;;;;;;8.98;100.00;96242.44;1010333;29;20775;-72
2023/01/01 01:48:06;;;;;;;41.60;23.35;;;;;;;8.98;100.00;96242.44;1019120;29;20252;-68
2023/01/01 01:48:42;;;;;;;44.28;25.90;;;;;;;8.98;100.00;96247.69;1017528;29;20286;-69
2023/01/01 01:49:17;;;;;;;45.47;24.67;;;;;;;8.93;100.00;96242.38;1020794;29;20414;-68
2023/01/01 01:49:49;;;;;;;46.22;23.95;;;;;;;8.94;100.00;96249.19;1014548;29;20680;-71
2023/01/01 01:50:20;;;;;;;40.10;22.90;;;;;;;8.97;100.00;96246.09;1013255;29;20304;-70
2023/01/01 01:50:51;;;;;;;44.55;24.33;;;;;;;8.93;100.00;96247.63;1014450;29;20273;-71
2023/01/01 01:51:27;;;;;;;42.00;24.10;;;;;;;8.89;100.00;96249.13;1013893;29;20027;-69
2023/01/01 01:51:58;;;;;;;44.97;27.02;;;;;;;8.86;100.00;96250.41;1018497;29;20303;-70
2023/01/01 01:52:28;;;;;;;45.40;25.95;;;;;;;8.86;100.00;96247.00;1018202;29;20390;-72
2023/01/01 01:53:27;;;;;;;44.80;26.00;;;;;;;8.81;100.00;96242.47;1019450;29;20290;-68
2023/01/01 01:53:59;;;;;;;48.05;26.88;;;;;;;8.77;100.00;96246.59;1015137;29;20087;-69
2023/01/01 01:54:30;;;;;;;48.60;26.20;;;;;;;8.74;100.00;96242.63;1018559;29;20738;-70
2023/01/01 01:55:01;;;;;;;46.67;27.38;;;;;;;8.70;100.00;96241.50;1022183;29;20270;-71
2023/01/01 01:55:33;;;;;;;48.85;26.83;;;;;;;8.64;100.00;96242.47;1009289;29;20035;-71
2023/01/01 01:56:06;;;;;;;51.58;28.13;;;;;;;8.66;100.00;96253.50;1005830;29;20065;-69
2023/01/01 01:56:44;;;;;;;48.22;26.92;;;;;;;8.63;100.00;96245.31;1006341;29;20273;-72
2023/01/01 01:57:14;;;;;;;48.22;26.48;;;;;;;8.60;100.00;96243.97;1015472;29;20287;-70
2023/01/01 01:57:45;;;;;;;49.65;28.27;;;;;;;8.59;100.00;96237.16;1011834;29;20332;-69
2023/01/01 01:58:15;;;;;;;44.47;25.52;;;;;;;8.64;100.00;96247.69;1006093;29;20552;-68
2023/01/01 01:58:46;;;;;;;44.97;25.92;;;;;;;8.65;100.00;96238.84;1007293;29;20104;-70
2023/01/01 01:59:17;;;;;;;48.30;25.83;;;;;;;8.64;100.00;96241.66;1014169;29;20028;-69
2023/01/01 01:59:49;;;;;;;45.72;25.23;;;;;;;8.60;100.00;96236.13;1013576;29;20273;-72
2023/01/01 02:00:19;;;;;;;43.03;25.33;;;;;;;8.63;100.00;96240.88;1010545;29;20600;-70
2023/01/01 02:00:50;;;;;;;43.78;24.88;;;;;;;8.62;100.00;96238.53;1014044;29;20288;-69
2023/01/01 02:01:20;;;;;;;43.70;24.80;;;;;;;8.62;100.00;96243.75;1013878;29;20478;-70
2023/01/01 02:01:51;;;;;;;44.80;25.25;;;;;;;8.64;100.00;96242.47;1015401;29;20047;-72
2023/01/01 02:02:58;;;;;;;45.75;24.20;;;;;;;8.63;100.00;96240.88;1018273;29;20030;-70
2023/01/01 02:03:45;;;;;;;42.10;23.15;;;;;;;8.64;100.00;96236.44;1009971;29;20124;-69
2023/01/01 02:04:15;;;;;;;40.95;22.80;;;;;;;8.62;100.00;96238.53;1006347;29;20277;-67
2023/01/01 02:04:46;;;;;;;42.92;23.33;;;;;;;8.54;100.00;96226.59;1008637;29;20771;-73
2023/01/01 02:05:17;;;;;;;38.88;21.45;;;;;;;8.72;100.00;96239.47;1009741;29;20024;-71
2023/01/01 02:05:48;;;;;;;40.95;21.55;;;;;;;8.78;100.00;96236.91;1006112;29;20562;-68
2023/01/01 02:06:19;;;;;;;40.17;20.58;;;;;;;8.83;100.00;96234.38;1014503;29;20328;-70
2023/01/01 02:06:49;;;;;;;34.78;19.80;;;;;;;8.81;100.00;96236.44;1015393;29;20044;-72
2023/01/01 02:07:20;;;;;;;35.85;20.45;;;;;;;8.80;100.00;96233.03;1014062;29;20111;-71
2023/01/01 02:07:51;;;;;;;31.85;18.08;;;;;;;8.81;100.00;96232.00;1017870;29;20027;-70
2023/01/01 02:08:21;;;;;;;32.35;18.73;;;;;;;8.79;100.00;96221.00;1014296;29;20506;-69
2023/01/01 02:08:52;;;;;;;35.80;18.67;;;;;;;8.84;100.00;96218.44;1010489;29;20032;-69
2023/01/01 02:09:22;;;;;;;31.63;18.35;;;;;;;9.03;100.00;96228.66;1010477;29;20479;-68
2023/01/01 02:09:53;;;;;;;29.33;17.30;;;;;;;8.97;100.00;96220.72;1011142;29;20028;-72
2023/01/01 02:10:23;;;;;;;31.75;17.42;;;;;;;9.12;100.00;96221.97;1021950;29;20029;-69
2023/01/01 02:10:54;;;;;;;28.33;16.33;;;;;;;9.09;100.00;96228.50;1017843;29;20066;-71
2023/01/01 02:11:24;;;;;;;29.20;16.00;;;;;;;9.07;100.00;96220.06;1017949;29;20656;-70
2023/01/01 02:11:55;;;;;;;27.67;16.85;;;;;;;9.13;100.00;96223.56;1017838;29;20389;-68
2023/01/01 02:12:25;;;;;;;30.63;16.25;;;;;;;9.09;100.00;96220.66;1015342;29;20028;-69
2023/01/01 02:12:56;;;;;;;29.33;15.77;;;;;;;9.05;100.00;96205.63;1017470;29;20787;-72
2023/01/01 02:13:26;;;;;;;26.15;14.25;;;;;;;9.17;100.00;96220.22;1018021;29;20169;-69
2023/01/01 02:13:57;;;;;;;25.90;15.15;;;;;;;9.15;100.00;96224.91;1014095;29;20028;-73
2023/01/01 02:14:27;;;;;;;25.80;15.55;;;;;;;9.17;100.00;96228.06;1014110;29;20059;-71
2023/01/01 02:14:58;;;;;;;28.08;14.25;;;;;;;9.08;100.00;96213.00;1010316;29;20024;-69
2023/01/01 02:15:58;;;;;;;23.70;13.85;;;;;;;9.13;100.00;96224.34;1012255;29;20028;-68
2023/01/01 02:16:28;;;;;;;26.23;14.40;;;;;;;9.09;100.00;96223.25;1014077;29;20031;-70
2023/01/01 02:17:07;;;;;;;29.17;16.25;;;;;;;9.04;100.00;96217.94;1018212;29;20288;-69
2023/01/01 02:17:56;;;;;;;32.25;17.75;;;;;;;9.00;100.00;96224.69;1017941;29;20019;-68
2023/01/01 02:18:41;;;;;;;30.23;16.38;;;;;;;9.00;100.00;96224.69;1022338;29;20255;-68
2023/01/01 02:19:43;;;;;;;30.13;16.98;;;;;;;9.00;100.00;96229.94;1018160;29;20323;-70
2023/01/01 02:20:37;;;;;;;24.13;14.88;;;;;;;9.05;100.00;96227.38;1018121;29;20303;-68
2023/01/01 02:21:16;;;;;;;27.65;15.43;;;;;;;9.09;100.00;96231.13;1022813;28;20655;-70
2023/01/01 02:21:49;;;;;;;27.88;15.48;;;;;;;9.15;100.00;96232.78;1022054;29;20306;-70
2023/01/01 02:22:34;;;;;;;24.25;13.95;;;;;;;9.16;100.00;96233.56;1022385;29;20757;-69
2023/01/01 02:23:37;;;;;;;21.52;13.48;;;;;;;9.17;100.00;96235.13;1021673;29;20262;-72
2023/01/01 02:24:26;;;;;;;21.50;12.93;;;;;;;9.20;100.00;96235.44;1018425;29;20350;-70
2023/01/01 02:25:20;;;;;;;23.75;13.38;;;;;;;9.23;100.00;96222.91;1014316;29;20264;-69
2023/01/01 02:26:03;;;;;;;26.08;13.48;;;;;;;9.27;100.00;96231.88;1016983;28;20721;-70
2023/01/01 02:26:41;;;;;;;26.60;13.65;;;;;;;9.26;100.00;96228.47;1018708;29;20582;-71
2023/01/01 02:27:23;;;;;;;23.98;12.93;;;;;;;9.27;100.00;96227.41;1018883;29;20848;-69
2023/01/01 02:28:13;;;;;;;21.95;12.77;;;;;;;9.29;100.00;96224.53;1019716;29;20283;-69
2023/01/01 02:28:49;;;;;;;22.45;12.95;;;;;;;9.31;100.00;96225.09;1022682;29;20279;-68
2023/01/01 02:29:57;;;;;;;24.42;13.32;;;;;;;9.31;100.00;96228.50;1022029;29;20348;-71
2023/01/01 02:30:28;;;;;;;23.65;12.57;;;;;;;9.30;100.00;96234.00;1020196;29;20287;-72
2023/01/01 02:30:58;;;;;;;23.00;12.98;;;;;;;9.27;100.00;96222.19;1019623;28;20271;-68
2023/01/01 02:31:32;;;;;;;27.08;13.40;;;;;;;9.21;100.00;96221.31;1020208;29;20043;-68